Blair, WI

10:54 AM CST on February 09, 2016 (GMT -0600)
Black Oak | | Change Station
CLOSE
Current Station
Personal Weather Station
Location: Mindoro, WI
Elevation: 781 ft
Nearby Weather Stations

Elev 781 ft 44.06 °N, 91.15 °W | Updated 6 minutes ago

Partly Cloudy
Partly Cloudy
11.3 °F
Feels Like -1 °F
N
8.3
Wind Variable Wind from North
Gusts 14.5 mph

Today
High -- | Low -- °F
--% Chance of Precip.
Yesterday
High -- | Low -- °F
Precip. -- in
Pressure 29.98 in
Visibility 10.0 miles
Clouds Mostly Cloudy 2400 ft
Windchill -1 °F
Dew Point 2 °F
Humidity 66%
Rainfall 0.00 in
Snow Depth Not available.
7:13 AM 5:25 PM
New Moon, 2% visible
METAR KBCK 091635Z AUTO 32010KT 290V360 10SM BKN024 M12/M19 A2998 RMK AO2 T11251190
Pressure 29.98 in
Visibility 10.0 miles
Clouds Mostly Cloudy 2400 ft
Windchill -1 °F
Dew Point 2 °F
Humidity 66%
Rainfall 0.00 in
Snow Depth Not available.
7:13 AM 5:25 PM
New Moon, 2% visible
METAR KBCK 091635Z AUTO 32010KT 290V360 10SM BKN024 M12/M19 A2998 RMK AO2 T11251190

10-Day Weather Forecast

Almanac

Astronomy

Feb. 09, 2016 Rise Set
Actual Time
Civil Twilight
Nautical Twilight
Astronomical Twilight
Moon
Length of Visible Light
Length of Day
Tomorrow will be .
, % of the Moon is Illuminated

Today's Extremes

State Highs State Lows

Community

WunderPhotos

Upload Photos

1,891,631 photos uploaded!

WunderBlog® & News

Nearby

Air Quality

  Air Quality AQ Index Pollutant
Not available.

Snow Depth

Station Depth Elevation

Earthquake Activity

City Distance Mag. Time & Date
Minimum magnitude displayed is 2.5.

Coastal Water Temperatures

Place Temperature

Stations

Nearby Weather Stations

Station Location Temp. Windchill Dew Point Humidity Wind Precip. Elev Updated Type
                   

Watches & Warnings

There are currently no watches in effect.